createdAt,value
2023-04-09T00:00:32.174Z,8.87
2023-04-09T00:03:00.111Z,8.97
2023-04-09T00:05:28.126Z,8.33
2023-04-09T00:07:56.205Z,8.40
2023-04-09T00:10:24.298Z,8.70
2023-04-09T00:12:52.160Z,10.27
2023-04-09T00:15:28.162Z,9.93
2023-04-09T00:18:00.843Z,12.90
2023-04-09T00:20:28.711Z,10.23
2023-04-09T00:22:56.611Z,9.80
2023-04-09T00:25:24.488Z,9.93
2023-04-09T00:27:52.319Z,9.40
2023-04-09T00:30:20.183Z,9.63
2023-04-09T00:32:48.129Z,9.43
2023-04-09T00:35:17.636Z,10.57
2023-04-09T00:37:45.894Z,9.80
2023-04-09T00:40:14.145Z,10.43
2023-04-09T00:42:42.130Z,8.57
2023-04-09T00:45:10.627Z,9.03
2023-04-09T00:47:38.597Z,8.30
2023-04-09T00:50:07.376Z,8.83
2023-04-09T00:52:37.116Z,9.00
2023-04-09T00:55:06.434Z,7.93
2023-04-09T00:57:34.587Z,8.70
2023-04-09T01:00:04.107Z,8.37
2023-04-09T01:02:35.008Z,8.33
2023-04-09T01:05:03.243Z,8.40
2023-04-09T01:07:48.616Z,9.70
2023-04-09T01:10:21.841Z,8.17
2023-04-09T01:13:01.681Z,10.53
2023-04-09T01:15:36.362Z,10.80
2023-04-09T01:18:08.669Z,9.80
2023-04-09T01:20:41.523Z,10.10
2023-04-09T01:23:19.751Z,10.07
2023-04-09T01:26:02.224Z,9.30
2023-04-09T01:28:34.415Z,9.67
2023-04-09T01:31:05.450Z,8.20
2023-04-09T01:33:34.274Z,8.70
2023-04-09T01:36:05.750Z,7.90
2023-04-09T01:38:36.355Z,8.07
2023-04-09T01:41:05.262Z,7.57
2023-04-09T01:43:35.622Z,8.00
2023-04-09T01:46:04.250Z,8.53
2023-04-09T01:48:33.910Z,8.13
2023-04-09T01:51:02.540Z,8.30
2023-04-09T01:53:31.195Z,7.93
2023-04-09T01:56:01.305Z,8.10
2023-04-09T01:58:29.259Z,7.90
2023-04-09T02:01:06.712Z,6.83
2023-04-09T02:03:39.203Z,7.73
2023-04-09T02:06:11.538Z,7.70
2023-04-09T02:08:39.381Z,7.27
2023-04-09T02:11:11.218Z,7.83
2023-04-09T02:13:41.553Z,7.63
2023-04-09T02:16:12.619Z,7.93
2023-04-09T02:18:40.506Z,7.67
2023-04-09T02:21:08.414Z,8.53
2023-04-09T02:23:36.249Z,8.63
2023-04-09T02:26:04.177Z,8.30
2023-04-09T02:28:32.084Z,9.00
2023-04-09T02:30:59.993Z,8.90
2023-04-09T02:33:29.221Z,8.30
2023-04-09T02:35:57.153Z,8.37
2023-04-09T02:38:25.540Z,8.23
2023-04-09T02:40:53.356Z,8.37
2023-04-09T02:43:21.238Z,8.13
2023-04-09T02:45:49.075Z,9.13
2023-04-09T02:48:16.949Z,8.30
2023-04-09T02:50:46.252Z,8.50
2023-04-09T02:53:14.086Z,8.57
2023-04-09T02:55:42.274Z,8.63
2023-04-09T02:58:10.117Z,8.47
2023-04-09T03:00:38.054Z,8.57
2023-04-09T03:03:06.422Z,7.30
2023-04-09T03:05:34.324Z,8.50
2023-04-09T03:08:03.636Z,8.83
2023-04-09T03:10:31.522Z,8.43
2023-04-09T03:12:59.551Z,7.70
2023-04-09T03:15:27.441Z,8.30
2023-04-09T03:17:55.382Z,7.73
2023-04-09T03:20:23.234Z,7.70
2023-04-09T03:22:51.050Z,7.47
2023-04-09T03:25:20.930Z,8.37
2023-04-09T03:27:48.785Z,8.70
2023-04-09T03:30:16.657Z,8.73
2023-04-09T03:32:44.543Z,8.73
2023-04-09T03:35:12.474Z,8.93
2023-04-09T03:37:40.659Z,9.07
2023-04-09T03:40:09.619Z,8.97
2023-04-09T03:42:38.914Z,8.97
2023-04-09T03:45:07.614Z,8.80
2023-04-09T03:47:35.646Z,8.20
2023-04-09T03:50:03.593Z,8.70
2023-04-09T03:52:31.450Z,9.37
2023-04-09T03:54:59.450Z,8.97
2023-04-09T03:57:27.273Z,7.60
2023-04-09T03:59:56.501Z,7.13
2023-04-09T04:02:27.001Z,7.70
2023-04-09T04:04:55.138Z,7.60
2023-04-09T04:07:22.979Z,7.47
2023-04-09T04:09:50.830Z,7.50
2023-04-09T04:12:18.765Z,9.20
2023-04-09T04:14:46.614Z,7.73
2023-04-09T04:17:15.940Z,8.00
2023-04-09T04:19:43.788Z,7.93
2023-04-09T04:22:11.689Z,8.97
2023-04-09T04:24:39.548Z,8.93
2023-04-09T04:27:07.388Z,7.80
2023-04-09T04:29:35.264Z,8.17
2023-04-09T04:32:03.160Z,8.43
2023-04-09T04:34:32.443Z,8.83
2023-04-09T04:37:02.831Z,8.53
2023-04-09T04:39:32.280Z,8.83
2023-04-09T04:42:00.110Z,9.30
2023-04-09T04:44:28.100Z,8.87
2023-04-09T04:46:55.934Z,9.67
2023-04-09T04:49:23.800Z,8.53
2023-04-09T04:51:53.017Z,8.37
2023-04-09T04:54:20.851Z,7.90
2023-04-09T04:56:48.661Z,8.43
2023-04-09T04:59:16.514Z,10.13
2023-04-09T05:01:44.356Z,10.67
2023-04-09T05:04:12.274Z,8.40
2023-04-09T05:06:40.111Z,8.53
2023-04-09T05:09:09.324Z,8.27
2023-04-09T05:11:37.181Z,8.20
2023-04-09T05:14:06.267Z,7.37
2023-04-09T05:16:34.194Z,7.20
2023-04-09T05:19:02.069Z,7.23
2023-04-09T05:21:29.923Z,7.30
2023-04-09T05:23:57.817Z,7.20
2023-04-09T05:26:27.066Z,7.30
2023-04-09T05:28:54.912Z,7.97
2023-04-09T05:31:22.781Z,9.67
2023-04-09T05:33:50.610Z,8.47
2023-04-09T05:36:20.025Z,8.37
2023-04-09T05:38:48.613Z,9.10
2023-04-09T05:41:16.600Z,8.40
2023-04-09T05:43:45.848Z,10.17
2023-04-09T05:46:13.689Z,10.73
2023-04-09T05:48:41.623Z,10.17
2023-04-09T05:51:10.003Z,9.60
2023-04-09T05:53:37.920Z,11.07
2023-04-09T05:56:14.503Z,11.90
2023-04-09T05:58:42.550Z,10.43
2023-04-09T06:01:11.808Z,10.77
2023-04-09T06:03:39.758Z,11.20
2023-04-09T06:06:07.806Z,12.60
2023-04-09T06:08:35.653Z,12.50
2023-04-09T06:11:03.614Z,11.67
2023-04-09T06:13:31.463Z,11.50
2023-04-09T06:15:59.494Z,12.57
2023-04-09T06:18:28.773Z,14.03
2023-04-09T06:21:02.974Z,13.30
2023-04-09T06:23:31.044Z,13.57
2023-04-09T06:25:58.923Z,14.80
2023-04-09T06:28:27.441Z,15.37
2023-04-09T06:30:55.755Z,15.10
2023-04-09T06:33:23.702Z,16.57
2023-04-09T06:35:52.999Z,15.57
2023-04-09T06:38:20.876Z,16.37
2023-04-09T06:40:49.960Z,17.40
2023-04-09T06:43:17.868Z,16.43
2023-04-09T06:45:45.755Z,17.47
2023-04-09T06:48:13.597Z,16.43
2023-04-09T06:50:41.471Z,18.30
2023-04-09T06:53:10.740Z,17.77
2023-04-09T06:55:38.639Z,18.57
2023-04-09T06:58:06.913Z,18.77
2023-04-09T07:00:34.812Z,17.77
2023-04-09T07:03:02.860Z,18.40
2023-04-09T07:05:31.713Z,18.63
2023-04-09T07:07:59.591Z,18.80
2023-04-09T07:10:28.850Z,18.40
2023-04-09T07:12:56.717Z,18.67
2023-04-09T07:15:24.740Z,19.47
2023-04-09T07:17:52.721Z,19.90
2023-04-09T07:20:20.723Z,19.90
2023-04-09T07:22:48.635Z,20.20
2023-04-09T07:25:16.954Z,20.73
2023-04-09T07:27:46.208Z,22.90
2023-04-09T07:30:14.329Z,21.93
2023-04-09T07:32:42.270Z,19.77
2023-04-09T07:35:11.811Z,22.40
2023-04-09T07:37:39.841Z,22.57
2023-04-09T07:40:09.034Z,22.60
2023-04-09T07:42:38.398Z,21.47
2023-04-09T07:45:08.960Z,23.93
2023-04-09T07:47:36.868Z,25.00
2023-04-09T07:50:05.069Z,24.27
2023-04-09T07:52:32.911Z,24.17
2023-04-09T07:55:00.953Z,23.53
2023-04-09T07:57:28.862Z,22.73
2023-04-09T07:59:56.812Z,22.10
2023-04-09T08:02:26.949Z,23.57
2023-04-09T08:04:55.136Z,24.20
2023-04-09T08:07:23.146Z,22.67
2023-04-09T08:09:51.022Z,23.20
2023-04-09T08:12:18.998Z,22.80
2023-04-09T08:14:46.853Z,22.87
2023-04-09T08:17:14.685Z,22.47
2023-04-09T08:19:43.898Z,22.63
2023-04-09T08:22:11.854Z,23.00
2023-04-09T08:24:40.255Z,22.23
2023-04-09T08:27:08.361Z,22.60
2023-04-09T08:29:36.229Z,21.30
2023-04-09T08:32:04.142Z,22.13
2023-04-09T08:34:32.030Z,23.00
2023-04-09T08:37:01.852Z,22.57
2023-04-09T08:39:29.745Z,22.37
2023-04-09T08:42:01.771Z,22.60
2023-04-09T08:44:30.729Z,23.00
2023-04-09T08:47:00.138Z,21.77
2023-04-09T08:49:28.138Z,21.27
2023-04-09T08:51:56.109Z,20.37
2023-04-09T08:54:26.802Z,21.47
2023-04-09T08:56:54.768Z,20.13
2023-04-09T08:59:22.596Z,19.30
2023-04-09T09:01:54.548Z,19.70
2023-04-09T09:04:22.665Z,18.73
2023-04-09T09:06:50.718Z,19.63
2023-04-09T09:09:18.946Z,19.90
2023-04-09T09:11:52.040Z,20.27
2023-04-09T09:14:20.965Z,19.87
2023-04-09T09:17:08.457Z,20.30
2023-04-09T09:19:36.646Z,19.87
2023-04-09T09:22:06.614Z,19.53
2023-04-09T09:24:35.056Z,20.20
2023-04-09T09:27:04.389Z,20.00
2023-04-09T09:29:32.317Z,20.60
2023-04-09T09:32:01.080Z,20.43
2023-04-09T09:34:29.072Z,19.77
2023-04-09T09:36:56.921Z,19.30
2023-04-09T09:39:24.768Z,23.13
2023-04-09T09:42:09.565Z,18.87
2023-04-09T09:44:37.389Z,19.57
2023-04-09T09:47:05.741Z,19.93
2023-04-09T09:49:33.669Z,20.43
2023-04-09T09:52:03.111Z,19.23
2023-04-09T09:54:41.009Z,21.77
2023-04-09T09:57:13.604Z,21.30
2023-04-09T09:59:44.738Z,20.37
2023-04-09T10:02:19.851Z,20.47
2023-04-09T10:04:50.795Z,17.80
2023-04-09T10:07:20.466Z,17.97
2023-04-09T10:09:50.917Z,15.67
2023-04-09T10:12:23.684Z,17.87
2023-04-09T10:14:52.961Z,19.40
2023-04-09T10:17:21.073Z,18.93
2023-04-09T10:19:59.012Z,16.23
2023-04-09T10:22:31.108Z,17.07
2023-04-09T10:24:59.930Z,16.83
2023-04-09T10:27:29.258Z,15.20
2023-04-09T10:29:57.078Z,15.23
2023-04-09T10:32:26.794Z,14.00
2023-04-09T10:34:59.543Z,14.10
2023-04-09T10:37:29.905Z,15.90
2023-04-09T10:39:58.691Z,14.90
2023-04-09T10:42:34.156Z,15.80
2023-04-09T10:45:09.998Z,16.35
2023-04-09T10:47:38.883Z,16.02
2023-04-09T10:50:17.014Z,15.68
2023-04-09T10:52:45.139Z,15.38
2023-04-09T10:55:38.032Z,15.27
2023-04-09T10:58:10.445Z,16.20
2023-04-09T11:00:42.137Z,14.53
2023-04-09T11:03:27.355Z,16.67
2023-04-09T11:06:01.022Z,14.90
2023-04-09T11:08:33.439Z,15.27
2023-04-09T11:11:02.296Z,17.90
2023-04-09T11:13:33.063Z,17.17
2023-04-09T11:16:01.526Z,15.90
2023-04-09T11:18:31.413Z,14.07
2023-04-09T11:21:03.196Z,12.93
2023-04-09T11:23:32.694Z,13.90
2023-04-09T11:26:01.807Z,13.40
2023-04-09T11:28:31.113Z,13.17
2023-04-09T11:30:58.981Z,13.17
2023-04-09T11:33:33.241Z,13.53
2023-04-09T11:36:01.805Z,13.63
2023-04-09T11:38:32.476Z,12.33
2023-04-09T11:41:01.322Z,12.50
2023-04-09T11:43:29.271Z,12.48
2023-04-09T11:45:58.833Z,12.45
2023-04-09T11:48:26.771Z,11.48
2023-04-09T11:50:55.020Z,11.88
2023-04-09T11:53:24.530Z,11.65
2023-04-09T11:55:53.288Z,12.05
2023-04-09T11:58:23.937Z,12.13
2023-04-09T12:00:54.299Z,12.77
2023-04-09T12:03:32.682Z,12.70
2023-04-09T12:06:02.931Z,12.13
2023-04-09T12:08:31.349Z,11.40
2023-04-09T12:11:09.686Z,12.97
2023-04-09T12:13:37.530Z,12.87
2023-04-09T12:16:06.648Z,12.50
2023-04-09T12:18:37.569Z,11.43
2023-04-09T12:21:06.157Z,11.00
2023-04-09T12:23:35.074Z,11.70
2023-04-09T12:26:02.959Z,11.20
2023-04-09T12:28:30.888Z,11.07
2023-04-09T12:31:01.748Z,12.13
2023-04-09T12:33:29.607Z,10.67
2023-04-09T12:35:58.954Z,10.83
2023-04-09T12:38:26.882Z,10.70
2023-04-09T12:40:54.862Z,10.70
2023-04-09T12:43:22.730Z,11.33
2023-04-09T12:45:50.602Z,10.63
2023-04-09T12:48:18.481Z,10.67
2023-04-09T12:50:46.335Z,11.10
2023-04-09T12:53:15.566Z,10.47
2023-04-09T12:55:43.398Z,10.80
2023-04-09T12:58:11.268Z,10.33
2023-04-09T13:00:39.252Z,11.00
2023-04-09T13:03:07.448Z,16.27
2023-04-09T13:05:36.215Z,12.43
2023-04-09T13:08:04.102Z,9.60
2023-04-09T13:10:33.377Z,10.40
2023-04-09T13:13:01.494Z,9.83
2023-04-09T13:15:29.531Z,10.23
2023-04-09T13:17:57.565Z,10.60
2023-04-09T13:20:25.508Z,10.37
2023-04-09T13:22:53.330Z,10.33
2023-04-09T13:25:21.353Z,11.03
2023-04-09T13:27:50.686Z,10.23
2023-04-09T13:30:18.716Z,9.90
2023-04-09T13:32:46.840Z,10.77
2023-04-09T13:35:14.987Z,10.83
2023-04-09T13:37:43.106Z,10.73
2023-04-09T13:40:11.521Z,11.10
2023-04-09T13:42:39.406Z,11.30
2023-04-09T13:45:09.401Z,10.70
2023-04-09T13:47:37.989Z,10.80
2023-04-09T13:50:07.455Z,11.40
2023-04-09T13:52:35.446Z,9.80
2023-04-09T13:55:04.790Z,9.40
2023-04-09T13:57:32.678Z,10.13
2023-04-09T14:00:02.197Z,9.43
2023-04-09T14:02:31.901Z,9.40
2023-04-09T14:04:59.928Z,9.27
2023-04-09T14:07:27.806Z,8.00
2023-04-09T14:09:55.918Z,7.67
2023-04-09T14:12:23.765Z,9.03
2023-04-09T14:14:51.744Z,8.70
2023-04-09T14:17:19.598Z,8.70
2023-04-09T14:19:48.802Z,8.70
2023-04-09T14:22:16.674Z,9.13
2023-04-09T14:24:44.498Z,8.33
2023-04-09T14:27:12.340Z,9.07
2023-04-09T14:29:40.174Z,9.37
2023-04-09T14:32:08.018Z,9.00
2023-04-09T14:34:35.886Z,9.67
2023-04-09T14:37:05.116Z,10.03
2023-04-09T14:39:33.048Z,9.20
2023-04-09T14:42:01.058Z,10.30
2023-04-09T14:44:29.253Z,9.73
2023-04-09T14:46:57.948Z,9.37
2023-04-09T14:49:25.977Z,10.07
2023-04-09T14:51:54.598Z,10.03
2023-04-09T14:54:23.826Z,9.50
2023-04-09T14:56:51.692Z,10.83
2023-04-09T14:59:19.589Z,11.87
2023-04-09T15:01:47.599Z,12.13
2023-04-09T15:04:15.777Z,11.57
2023-04-09T15:06:43.736Z,12.30
2023-04-09T15:09:19.993Z,11.40
2023-04-09T15:11:49.229Z,10.77
2023-04-09T15:14:17.141Z,11.00
2023-04-09T15:16:45.166Z,10.63
2023-04-09T15:19:13.063Z,11.93
2023-04-09T15:21:40.878Z,11.77
2023-04-09T15:24:08.748Z,11.67
2023-04-09T15:26:36.614Z,11.30
2023-04-09T15:29:08.763Z,10.63
2023-04-09T15:31:38.042Z,10.67
2023-04-09T15:34:07.042Z,10.03
2023-04-09T15:36:35.114Z,10.03
2023-04-09T15:39:04.729Z,9.37
2023-04-09T15:41:33.772Z,8.40
2023-04-09T15:44:01.654Z,8.53
2023-04-09T15:46:30.882Z,9.53
2023-04-09T15:48:58.738Z,9.03
2023-04-09T15:51:27.086Z,7.90
2023-04-09T15:53:54.924Z,8.70
2023-04-09T15:56:22.795Z,9.13
2023-04-09T15:58:50.802Z,8.07
2023-04-09T16:01:19.154Z,7.97
2023-04-09T16:03:52.057Z,8.37
2023-04-09T16:06:21.137Z,8.20
2023-04-09T16:08:48.991Z,7.87
2023-04-09T16:11:17.251Z,7.50
2023-04-09T16:13:45.165Z,7.70
2023-04-09T16:16:13.040Z,7.83
2023-04-09T16:18:40.949Z,7.37
2023-04-09T16:21:10.216Z,7.90
2023-04-09T16:23:38.489Z,7.70
2023-04-09T16:26:06.878Z,8.00
2023-04-09T16:28:34.751Z,7.50
2023-04-09T16:31:02.637Z,7.80
2023-04-09T16:33:34.218Z,7.87
2023-04-09T16:36:02.102Z,8.30
2023-04-09T16:38:31.406Z,9.17
2023-04-09T16:40:59.429Z,8.77
2023-04-09T16:43:27.311Z,8.90
2023-04-09T16:45:55.512Z,8.47
2023-04-09T16:48:24.010Z,8.93
2023-04-09T16:50:51.887Z,9.50
2023-04-09T16:53:19.806Z,8.90
2023-04-09T16:55:49.164Z,8.87
2023-04-09T16:58:17.074Z,8.47
2023-04-09T17:00:47.215Z,9.03
2023-04-09T17:03:16.146Z,9.13
2023-04-09T17:05:49.375Z,9.50
2023-04-09T17:08:17.524Z,9.77
2023-04-09T17:10:45.810Z,10.20
2023-04-09T17:13:15.042Z,10.90
2023-04-09T17:15:43.202Z,9.93
2023-04-09T17:18:11.031Z,10.47
2023-04-09T17:20:38.887Z,10.13
2023-04-09T17:23:06.726Z,11.17
2023-04-09T17:25:34.647Z,10.40
2023-04-09T17:28:02.707Z,10.50
2023-04-09T17:30:33.214Z,10.50
2023-04-09T17:33:01.730Z,10.43
2023-04-09T17:35:29.644Z,11.50
2023-04-09T17:37:57.547Z,10.43
2023-04-09T17:40:25.455Z,10.53
2023-04-09T17:42:53.310Z,10.50
2023-04-09T17:45:21.164Z,11.37
2023-04-09T17:47:51.211Z,11.63
2023-04-09T17:50:19.758Z,9.97
2023-04-09T17:52:47.634Z,10.97
2023-04-09T17:55:15.589Z,11.63
2023-04-09T17:57:43.520Z,11.53
2023-04-09T18:00:12.399Z,10.70
2023-04-09T18:02:40.436Z,10.80
2023-04-09T18:05:10.874Z,10.67
2023-04-09T18:07:38.844Z,11.63
2023-04-09T18:10:07.651Z,10.90
2023-04-09T18:12:35.669Z,11.03
2023-04-09T18:15:04.256Z,10.53
2023-04-09T18:17:32.419Z,10.60
2023-04-09T18:20:00.797Z,11.60
2023-04-09T18:22:30.057Z,11.13
2023-04-09T18:24:57.937Z,11.20
2023-04-09T18:27:25.863Z,11.47
2023-04-09T18:29:53.702Z,13.17
2023-04-09T18:32:21.782Z,13.57
2023-04-09T18:34:49.666Z,12.60
2023-04-09T18:37:17.793Z,12.47
2023-04-09T18:39:47.168Z,12.07
2023-04-09T18:42:15.168Z,11.47
2023-04-09T18:44:43.031Z,10.30
2023-04-09T18:47:12.046Z,9.67
2023-04-09T18:49:39.955Z,10.80
2023-04-09T18:52:09.203Z,10.27
2023-04-09T18:54:37.552Z,9.53
2023-04-09T18:57:07.072Z,9.73
2023-04-09T18:59:35.350Z,10.70
2023-04-09T19:02:04.968Z,9.67
2023-04-09T19:04:36.292Z,11.20
2023-04-09T19:07:04.511Z,11.53
2023-04-09T19:09:33.059Z,10.23
2023-04-09T19:12:01.552Z,10.03
2023-04-09T19:14:30.958Z,10.13
2023-04-09T19:16:59.659Z,10.80
2023-04-09T19:19:29.013Z,11.13
2023-04-09T19:21:56.883Z,11.23
2023-04-09T19:24:25.155Z,10.07
2023-04-09T19:26:53.578Z,10.97
2023-04-09T19:29:21.452Z,12.63
2023-04-09T19:31:50.723Z,12.43
2023-04-09T19:34:18.609Z,15.17
2023-04-09T19:36:46.630Z,10.67
2023-04-09T19:39:15.463Z,9.77
2023-04-09T19:41:43.296Z,11.20
2023-04-09T19:44:11.412Z,10.37
2023-04-09T19:46:39.338Z,10.80
2023-04-09T19:49:08.625Z,10.53
2023-04-09T19:51:36.468Z,11.30
2023-04-09T19:54:04.386Z,10.13
2023-04-09T19:56:32.968Z,12.00
2023-04-09T19:59:00.971Z,11.80
2023-04-09T20:01:29.072Z,9.90
2023-04-09T20:03:57.614Z,9.77
2023-04-09T20:06:27.156Z,10.67
2023-04-09T20:08:56.020Z,11.37
2023-04-09T20:11:23.906Z,9.63
2023-04-09T20:13:52.048Z,11.40
2023-04-09T20:16:20.136Z,10.10
2023-04-09T20:18:48.064Z,9.27
2023-04-09T20:21:15.947Z,8.53
2023-04-09T20:23:47.809Z,9.87
2023-04-09T20:26:15.652Z,10.53
2023-04-09T20:28:43.578Z,12.30
2023-04-09T20:31:11.440Z,11.70
2023-04-09T20:33:39.373Z,12.10
2023-04-09T20:36:15.134Z,12.10
2023-04-09T20:38:43.114Z,13.27
2023-04-09T20:41:12.340Z,13.87
2023-04-09T20:43:40.455Z,12.93
2023-04-09T20:46:08.584Z,13.23
2023-04-09T20:48:36.472Z,14.80
2023-04-09T20:51:09.124Z,14.10
2023-04-09T20:53:36.988Z,15.63
2023-04-09T20:56:05.994Z,16.87
2023-04-09T20:58:35.266Z,13.20
2023-04-09T21:01:06.532Z,12.07
2023-04-09T21:03:35.983Z,14.37
2023-04-09T21:06:04.311Z,11.70
2023-04-09T21:08:32.302Z,13.67
2023-04-09T21:11:02.172Z,13.13
2023-04-09T21:13:30.925Z,16.97
2023-04-09T21:16:04.087Z,15.57
2023-04-09T21:18:32.181Z,16.53
2023-04-09T21:21:02.298Z,17.73
2023-04-09T21:23:30.148Z,18.37
2023-04-09T21:25:57.970Z,17.37
2023-04-09T21:28:26.636Z,20.40
2023-04-09T21:30:54.486Z,21.50
2023-04-09T21:33:23.692Z,19.93
2023-04-09T21:35:53.464Z,17.57
2023-04-09T21:38:21.322Z,15.63
2023-04-09T21:40:49.210Z,17.23
2023-04-09T21:43:17.148Z,18.40
2023-04-09T21:45:44.975Z,18.70
2023-04-09T21:48:13.725Z,19.93
2023-04-09T21:50:42.943Z,18.10
2023-04-09T21:53:10.990Z,19.10
2023-04-09T21:55:39.053Z,15.67
2023-04-09T21:58:08.226Z,19.83
2023-04-09T22:00:36.192Z,18.67
2023-04-09T22:03:04.336Z,15.00
2023-04-09T22:05:34.976Z,13.70
2023-04-09T22:08:04.369Z,23.07
2023-04-09T22:10:32.229Z,15.47
2023-04-09T22:13:00.156Z,13.40
2023-04-09T22:15:28.044Z,13.70
2023-04-09T22:17:56.197Z,14.37
2023-04-09T22:20:24.793Z,15.57
2023-04-09T22:22:52.669Z,17.13
2023-04-09T22:25:22.236Z,15.00
2023-04-09T22:27:52.691Z,13.53
2023-04-09T22:30:23.760Z,13.30
2023-04-09T22:32:52.368Z,12.77
2023-04-09T22:35:20.625Z,13.87
2023-04-09T22:37:48.480Z,15.90
2023-04-09T22:40:16.693Z,17.13
2023-04-09T22:42:47.938Z,16.70
2023-04-09T22:45:16.103Z,17.33
2023-04-09T22:47:43.999Z,15.20
2023-04-09T22:50:13.613Z,22.00
2023-04-09T22:52:41.521Z,15.00
2023-04-09T22:55:11.052Z,14.67
2023-04-09T22:57:41.098Z,15.00
2023-04-09T23:00:12.375Z,16.03
2023-04-09T23:02:40.776Z,16.07
2023-04-09T23:05:09.821Z,17.33
2023-04-09T23:07:37.684Z,18.23
2023-04-09T23:10:06.019Z,19.03
2023-04-09T23:12:33.860Z,18.73
2023-04-09T23:15:01.934Z,18.80
2023-04-09T23:17:31.323Z,19.03
2023-04-09T23:19:59.399Z,17.30
2023-04-09T23:22:27.452Z,17.03
2023-04-09T23:24:55.285Z,17.83
2023-04-09T23:27:28.272Z,16.93
2023-04-09T23:29:56.633Z,15.33
2023-04-09T23:32:24.534Z,15.33
2023-04-09T23:34:53.772Z,15.47
2023-04-09T23:37:21.686Z,15.20
2023-04-09T23:39:49.541Z,15.50
2023-04-09T23:42:17.379Z,15.60
2023-04-09T23:44:45.404Z,14.90
2023-04-09T23:47:13.785Z,15.27
2023-04-09T23:49:43.431Z,14.47
2023-04-09T23:52:12.688Z,14.00
2023-04-09T23:54:40.521Z,16.63
2023-04-09T23:57:08.389Z,16.43
2023-04-09T23:59:36.379Z,16.83
